sensor_id;sensor_type;location;lat;lon;timestamp;P1;durP1;ratioP1;P2;durP2;ratioP2
35494;SDS011;21608;49.300;6.846;2022-09-09T00:03:44;0.70;;;0.63;;
35494;SDS011;21608;49.300;6.846;2022-09-09T00:06:33;0.77;;;0.70;;
35494;SDS011;21608;49.300;6.846;2022-09-09T00:10:13;0.95;;;0.77;;
35494;SDS011;21608;49.300;6.846;2022-09-09T00:13:24;1.55;;;1.02;;
35494;SDS011;21608;49.300;6.846;2022-09-09T00:16:35;1.40;;;0.73;;
35494;SDS011;21608;49.300;6.846;2022-09-09T00:32:49;0.95;;;0.60;;
35494;SDS011;21608;49.300;6.846;2022-09-09T00:35:56;1.58;;;0.70;;
35494;SDS011;21608;49.300;6.846;2022-09-09T00:39:00;0.80;;;0.50;;
35494;SDS011;21608;49.300;6.846;2022-09-09T00:48:40;4.35;;;1.05;;
35494;SDS011;21608;49.300;6.846;2022-09-09T00:55:05;2.08;;;0.50;;
35494;SDS011;21608;49.300;6.846;2022-09-09T00:58:23;0.50;;;0.50;;
35494;SDS011;21608;49.300;6.846;2022-09-09T01:01:25;1.63;;;0.88;;
35494;SDS011;21608;49.300;6.846;2022-09-09T01:04:29;1.73;;;0.82;;
35494;SDS011;21608;49.300;6.846;2022-09-09T01:07:35;0.70;;;0.60;;
35494;SDS011;21608;49.300;6.846;2022-09-09T01:14:35;1.60;;;0.63;;
35494;SDS011;21608;49.300;6.846;2022-09-09T01:21:22;0.68;;;0.68;;
35494;SDS011;21608;49.300;6.846;2022-09-09T01:28:38;2.33;;;0.70;;
35494;SDS011;21608;49.300;6.846;2022-09-09T01:32:01;1.55;;;0.50;;
35494;SDS011;21608;49.300;6.846;2022-09-09T01:35:43;7.03;;;0.80;;
35494;SDS011;21608;49.300;6.846;2022-09-09T01:39:20;0.93;;;0.80;;
35494;SDS011;21608;49.300;6.846;2022-09-09T01:42:30;0.82;;;0.52;;
35494;SDS011;21608;49.300;6.846;2022-09-09T01:45:33;0.60;;;0.60;;
35494;SDS011;21608;49.300;6.846;2022-09-09T01:48:35;1.20;;;0.80;;
35494;SDS011;21608;49.300;6.846;2022-09-09T01:51:41;0.60;;;0.52;;
35494;SDS011;21608;49.300;6.846;2022-09-09T01:54:47;0.85;;;0.45;;
35494;SDS011;21608;49.300;6.846;2022-09-09T02:07:45;1.10;;;0.60;;
35494;SDS011;21608;49.300;6.846;2022-09-09T02:11:06;0.50;;;0.50;;
35494;SDS011;21608;49.300;6.846;2022-09-09T02:14:16;1.25;;;0.70;;
35494;SDS011;21608;49.300;6.846;2022-09-09T02:17:28;1.73;;;0.70;;
35494;SDS011;21608;49.300;6.846;2022-09-09T02:20:40;0.55;;;0.45;;
35494;SDS011;21608;49.300;6.846;2022-09-09T02:23:44;1.05;;;0.70;;
35494;SDS011;21608;49.300;6.846;2022-09-09T02:26:51;0.80;;;0.52;;
35494;SDS011;21608;49.300;6.846;2022-09-09T02:29:56;0.57;;;0.50;;
35494;SDS011;21608;49.300;6.846;2022-09-09T02:33:23;0.40;;;0.40;;
35494;SDS011;21608;49.300;6.846;2022-09-09T02:36:29;1.25;;;0.60;;
35494;SDS011;21608;49.300;6.846;2022-09-09T02:39:34;0.77;;;0.50;;
35494;SDS011;21608;49.300;6.846;2022-09-09T02:42:39;0.57;;;0.50;;
35494;SDS011;21608;49.300;6.846;2022-09-09T02:45:51;0.73;;;0.57;;
35494;SDS011;21608;49.300;6.846;2022-09-09T02:52:11;2.35;;;0.82;;
35494;SDS011;21608;49.300;6.846;2022-09-09T02:58:51;1.02;;;0.60;;
35494;SDS011;21608;49.300;6.846;2022-09-09T03:01:53;1.23;;;0.55;;
35494;SDS011;21608;49.300;6.846;2022-09-09T03:04:56;0.85;;;0.57;;
35494;SDS011;21608;49.300;6.846;2022-09-09T03:07:58;1.40;;;0.75;;
35494;SDS011;21608;49.300;6.846;2022-09-09T03:11:00;1.65;;;0.70;;
35494;SDS011;21608;49.300;6.846;2022-09-09T03:14:08;0.50;;;0.50;;
35494;SDS011;21608;49.300;6.846;2022-09-09T03:17:12;1.23;;;0.55;;
35494;SDS011;21608;49.300;6.846;2022-09-09T03:20:21;3.20;;;0.80;;
35494;SDS011;21608;49.300;6.846;2022-09-09T03:23:24;1.67;;;0.60;;
35494;SDS011;21608;49.300;6.846;2022-09-09T03:26:26;0.75;;;0.75;;
35494;SDS011;21608;49.300;6.846;2022-09-09T03:29:29;4.45;;;1.10;;
35494;SDS011;21608;49.300;6.846;2022-09-09T03:32:33;2.20;;;0.60;;
35494;SDS011;21608;49.300;6.846;2022-09-09T03:35:35;4.65;;;0.90;;
35494;SDS011;21608;49.300;6.846;2022-09-09T03:38:37;2.63;;;0.65;;
35494;SDS011;21608;49.300;6.846;2022-09-09T03:41:40;2.88;;;0.82;;
35494;SDS011;21608;49.300;6.846;2022-09-09T03:44:42;1.23;;;0.60;;
35494;SDS011;21608;49.300;6.846;2022-09-09T03:47:45;1.08;;;0.50;;
35494;SDS011;21608;49.300;6.846;2022-09-09T03:50:49;2.28;;;1.05;;
35494;SDS011;21608;49.300;6.846;2022-09-09T03:53:52;0.85;;;0.70;;
35494;SDS011;21608;49.300;6.846;2022-09-09T03:56:57;0.55;;;0.45;;
35494;SDS011;21608;49.300;6.846;2022-09-09T04:00:01;1.73;;;0.80;;
35494;SDS011;21608;49.300;6.846;2022-09-09T04:03:16;0.77;;;0.43;;
35494;SDS011;21608;49.300;6.846;2022-09-09T04:06:18;1.10;;;0.60;;
35494;SDS011;21608;49.300;6.846;2022-09-09T04:09:22;1.33;;;0.52;;
35494;SDS011;21608;49.300;6.846;2022-09-09T04:12:25;1.33;;;0.50;;
35494;SDS011;21608;49.300;6.846;2022-09-09T04:15:27;1.55;;;0.52;;
35494;SDS011;21608;49.300;6.846;2022-09-09T04:18:30;3.28;;;0.70;;
35494;SDS011;21608;49.300;6.846;2022-09-09T04:21:33;1.35;;;0.40;;
35494;SDS011;21608;49.300;6.846;2022-09-09T04:24:36;1.15;;;0.70;;
35494;SDS011;21608;49.300;6.846;2022-09-09T04:27:38;3.28;;;0.70;;
35494;SDS011;21608;49.300;6.846;2022-09-09T04:30:41;2.95;;;1.10;;
35494;SDS011;21608;49.300;6.846;2022-09-09T04:33:44;2.25;;;0.90;;
35494;SDS011;21608;49.300;6.846;2022-09-09T04:36:45;2.85;;;0.70;;
35494;SDS011;21608;49.300;6.846;2022-09-09T04:39:47;7.15;;;1.13;;
35494;SDS011;21608;49.300;6.846;2022-09-09T04:42:50;7.25;;;1.40;;
35494;SDS011;21608;49.300;6.846;2022-09-09T04:45:52;3.95;;;1.05;;
35494;SDS011;21608;49.300;6.846;2022-09-09T04:48:57;3.35;;;1.27;;
35494;SDS011;21608;49.300;6.846;2022-09-09T04:52:03;4.47;;;1.05;;
35494;SDS011;21608;49.300;6.846;2022-09-09T04:55:07;1.45;;;0.73;;
35494;SDS011;21608;49.300;6.846;2022-09-09T04:58:10;7.30;;;1.05;;
35494;SDS011;21608;49.300;6.846;2022-09-09T05:01:14;5.38;;;0.95;;
35494;SDS011;21608;49.300;6.846;2022-09-09T05:04:22;2.83;;;0.73;;
35494;SDS011;21608;49.300;6.846;2022-09-09T05:07:24;4.57;;;0.93;;
35494;SDS011;21608;49.300;6.846;2022-09-09T05:10:28;3.22;;;1.30;;
35494;SDS011;21608;49.300;6.846;2022-09-09T05:13:31;6.22;;;1.02;;
35494;SDS011;21608;49.300;6.846;2022-09-09T05:16:34;3.80;;;1.00;;
35494;SDS011;21608;49.300;6.846;2022-09-09T05:19:36;2.40;;;1.05;;
35494;SDS011;21608;49.300;6.846;2022-09-09T05:22:38;3.20;;;1.10;;
35494;SDS011;21608;49.300;6.846;2022-09-09T05:25:40;3.13;;;1.00;;
35494;SDS011;21608;49.300;6.846;2022-09-09T05:28:42;1.13;;;0.63;;
35494;SDS011;21608;49.300;6.846;2022-09-09T05:31:45;2.78;;;0.85;;
35494;SDS011;21608;49.300;6.846;2022-09-09T05:34:51;2.45;;;0.98;;
35494;SDS011;21608;49.300;6.846;2022-09-09T05:37:53;3.10;;;1.05;;
35494;SDS011;21608;49.300;6.846;2022-09-09T05:41:00;2.73;;;1.20;;
35494;SDS011;21608;49.300;6.846;2022-09-09T05:44:04;2.05;;;0.90;;
35494;SDS011;21608;49.300;6.846;2022-09-09T05:47:11;3.92;;;1.02;;
35494;SDS011;21608;49.300;6.846;2022-09-09T05:50:12;2.53;;;1.00;;
35494;SDS011;21608;49.300;6.846;2022-09-09T05:53:15;2.03;;;0.80;;
35494;SDS011;21608;49.300;6.846;2022-09-09T05:56:22;2.08;;;1.00;;
35494;SDS011;21608;49.300;6.846;2022-09-09T05:59:26;2.47;;;1.02;;
35494;SDS011;21608;49.300;6.846;2022-09-09T06:02:29;1.77;;;0.80;;
35494;SDS011;21608;49.300;6.846;2022-09-09T06:05:33;3.00;;;1.30;;
35494;SDS011;21608;49.300;6.846;2022-09-09T06:08:37;2.47;;;0.82;;
35494;SDS011;21608;49.300;6.846;2022-09-09T06:11:40;5.03;;;0.93;;
35494;SDS011;21608;49.300;6.846;2022-09-09T06:14:43;2.53;;;0.80;;
35494;SDS011;21608;49.300;6.846;2022-09-09T06:17:53;2.78;;;1.10;;
35494;SDS011;21608;49.300;6.846;2022-09-09T06:20:57;1.52;;;0.65;;
35494;SDS011;21608;49.300;6.846;2022-09-09T06:24:00;3.35;;;1.33;;
35494;SDS011;21608;49.300;6.846;2022-09-09T06:27:02;5.18;;;1.25;;
35494;SDS011;21608;49.300;6.846;2022-09-09T06:30:08;3.25;;;1.17;;
35494;SDS011;21608;49.300;6.846;2022-09-09T06:33:11;3.78;;;0.82;;
35494;SDS011;21608;49.300;6.846;2022-09-09T06:36:13;2.50;;;0.80;;
35494;SDS011;21608;49.300;6.846;2022-09-09T06:39:17;5.28;;;1.13;;
35494;SDS011;21608;49.300;6.846;2022-09-09T06:42:20;6.22;;;1.30;;
35494;SDS011;21608;49.300;6.846;2022-09-09T06:45:40;2.22;;;1.20;;
35494;SDS011;21608;49.300;6.846;2022-09-09T06:48:43;2.13;;;1.30;;
35494;SDS011;21608;49.300;6.846;2022-09-09T06:51:49;8.32;;;1.05;;
35494;SDS011;21608;49.300;6.846;2022-09-09T06:54:55;4.15;;;1.20;;
35494;SDS011;21608;49.300;6.846;2022-09-09T06:57:56;2.95;;;1.05;;
35494;SDS011;21608;49.300;6.846;2022-09-09T07:01:04;2.83;;;1.08;;
35494;SDS011;21608;49.300;6.846;2022-09-09T07:04:07;1.92;;;0.80;;
35494;SDS011;21608;49.300;6.846;2022-09-09T07:07:11;4.43;;;1.15;;
35494;SDS011;21608;49.300;6.846;2022-09-09T07:10:15;5.20;;;1.42;;
35494;SDS011;21608;49.300;6.846;2022-09-09T07:13:18;3.55;;;1.17;;
35494;SDS011;21608;49.300;6.846;2022-09-09T07:16:23;3.17;;;1.30;;
35494;SDS011;21608;49.300;6.846;2022-09-09T07:19:26;4.03;;;1.30;;
35494;SDS011;21608;49.300;6.846;2022-09-09T07:22:29;4.97;;;1.75;;
35494;SDS011;21608;49.300;6.846;2022-09-09T07:25:31;5.93;;;1.55;;
35494;SDS011;21608;49.300;6.846;2022-09-09T07:28:33;6.93;;;1.60;;
35494;SDS011;21608;49.300;6.846;2022-09-09T07:31:36;6.07;;;1.80;;
35494;SDS011;21608;49.300;6.846;2022-09-09T07:34:45;6.47;;;1.70;;
35494;SDS011;21608;49.300;6.846;2022-09-09T07:37:49;5.22;;;1.63;;
35494;SDS011;21608;49.300;6.846;2022-09-09T07:40:53;4.65;;;1.88;;
35494;SDS011;21608;49.300;6.846;2022-09-09T07:43:56;11.52;;;2.42;;
35494;SDS011;21608;49.300;6.846;2022-09-09T07:47:00;7.03;;;1.70;;
35494;SDS011;21608;49.300;6.846;2022-09-09T07:50:09;6.05;;;1.42;;
35494;SDS011;21608;49.300;6.846;2022-09-09T07:53:12;5.85;;;1.70;;
35494;SDS011;21608;49.300;6.846;2022-09-09T07:56:15;7.55;;;1.80;;
35494;SDS011;21608;49.300;6.846;2022-09-09T07:59:18;8.18;;;1.73;;
35494;SDS011;21608;49.300;6.846;2022-09-09T08:02:23;6.85;;;1.77;;
35494;SDS011;21608;49.300;6.846;2022-09-09T08:05:26;9.65;;;1.83;;
35494;SDS011;21608;49.300;6.846;2022-09-09T08:08:29;7.38;;;2.15;;
35494;SDS011;21608;49.300;6.846;2022-09-09T08:11:31;7.55;;;1.88;;
35494;SDS011;21608;49.300;6.846;2022-09-09T08:14:39;3.65;;;1.80;;
35494;SDS011;21608;49.300;6.846;2022-09-09T08:17:41;2.70;;;1.35;;
35494;SDS011;21608;49.300;6.846;2022-09-09T08:20:44;4.40;;;1.42;;
35494;SDS011;21608;49.300;6.846;2022-09-09T08:23:46;11.90;;;2.03;;
35494;SDS011;21608;49.300;6.846;2022-09-09T08:26:49;7.88;;;1.70;;
35494;SDS011;21608;49.300;6.846;2022-09-09T08:29:55;8.10;;;1.98;;
35494;SDS011;21608;49.300;6.846;2022-09-09T08:32:57;5.88;;;1.65;;
35494;SDS011;21608;49.300;6.846;2022-09-09T08:36:01;6.13;;;1.70;;
35494;SDS011;21608;49.300;6.846;2022-09-09T08:39:05;6.30;;;2.13;;
35494;SDS011;21608;49.300;6.846;2022-09-09T08:42:13;7.03;;;1.83;;
35494;SDS011;21608;49.300;6.846;2022-09-09T08:45:28;5.38;;;1.67;;
35494;SDS011;21608;49.300;6.846;2022-09-09T08:48:49;5.53;;;1.45;;
35494;SDS011;21608;49.300;6.846;2022-09-09T08:52:03;6.00;;;1.77;;
35494;SDS011;21608;49.300;6.846;2022-09-09T08:55:22;4.45;;;1.50;;
35494;SDS011;21608;49.300;6.846;2022-09-09T08:58:33;5.28;;;1.75;;
35494;SDS011;21608;49.300;6.846;2022-09-09T09:08:33;3.53;;;1.77;;
35494;SDS011;21608;49.300;6.846;2022-09-09T09:11:36;8.48;;;2.13;;
35494;SDS011;21608;49.300;6.846;2022-09-09T09:14:40;7.45;;;2.00;;
35494;SDS011;21608;49.300;6.846;2022-09-09T09:17:45;4.03;;;1.48;;
35494;SDS011;21608;49.300;6.846;2022-09-09T09:24:20;5.30;;;1.88;;
35494;SDS011;21608;49.300;6.846;2022-09-09T09:27:34;6.32;;;1.75;;
35494;SDS011;21608;49.300;6.846;2022-09-09T09:31:04;8.63;;;1.85;;
35494;SDS011;21608;49.300;6.846;2022-09-09T09:34:14;7.88;;;1.90;;
35494;SDS011;21608;49.300;6.846;2022-09-09T09:37:16;5.45;;;1.52;;
35494;SDS011;21608;49.300;6.846;2022-09-09T09:40:24;6.57;;;1.70;;
35494;SDS011;21608;49.300;6.846;2022-09-09T09:46:31;3.13;;;1.60;;
35494;SDS011;21608;49.300;6.846;2022-09-09T09:53:25;2.83;;;1.65;;
35494;SDS011;21608;49.300;6.846;2022-09-09T09:56:31;6.28;;;1.70;;
35494;SDS011;21608;49.300;6.846;2022-09-09T09:59:36;6.07;;;2.17;;
35494;SDS011;21608;49.300;6.846;2022-09-09T10:02:48;7.50;;;1.92;;
35494;SDS011;21608;49.300;6.846;2022-09-09T10:05:56;3.65;;;1.58;;
35494;SDS011;21608;49.300;6.846;2022-09-09T10:08:59;3.85;;;1.77;;
35494;SDS011;21608;49.300;6.846;2022-09-09T10:12:05;3.25;;;1.67;;
35494;SDS011;21608;49.300;6.846;2022-09-09T10:15:42;3.78;;;1.58;;
35494;SDS011;21608;49.300;6.846;2022-09-09T10:25:58;4.53;;;1.95;;
35494;SDS011;21608;49.300;6.846;2022-09-09T10:32:28;7.15;;;1.75;;
35494;SDS011;21608;49.300;6.846;2022-09-09T10:39:15;8.38;;;1.90;;
35494;SDS011;21608;49.300;6.846;2022-09-09T10:42:43;7.15;;;2.00;;
35494;SDS011;21608;49.300;6.846;2022-09-09T10:45:55;2.72;;;1.35;;
35494;SDS011;21608;49.300;6.846;2022-09-09T10:52:36;6.50;;;1.88;;
35494;SDS011;21608;49.300;6.846;2022-09-09T10:56:12;4.63;;;1.38;;
35494;SDS011;21608;49.300;6.846;2022-09-09T10:59:18;4.40;;;1.25;;
35494;SDS011;21608;49.300;6.846;2022-09-09T11:02:26;4.10;;;1.20;;
35494;SDS011;21608;49.300;6.846;2022-09-09T11:05:31;3.53;;;1.17;;
35494;SDS011;21608;49.300;6.846;2022-09-09T11:08:37;4.10;;;1.42;;
35494;SDS011;21608;49.300;6.846;2022-09-09T11:11:51;5.95;;;1.70;;
35494;SDS011;21608;49.300;6.846;2022-09-09T11:14:59;3.85;;;1.30;;
35494;SDS011;21608;49.300;6.846;2022-09-09T11:18:21;7.40;;;1.75;;
35494;SDS011;21608;49.300;6.846;2022-09-09T11:21:35;4.82;;;1.40;;
35494;SDS011;21608;49.300;6.846;2022-09-09T11:38:37;3.20;;;1.38;;
35494;SDS011;21608;49.300;6.846;2022-09-09T11:41:48;3.67;;;1.35;;
35494;SDS011;21608;49.300;6.846;2022-09-09T11:44:50;5.47;;;1.90;;
35494;SDS011;21608;49.300;6.846;2022-09-09T11:47:56;4.60;;;1.70;;
35494;SDS011;21608;49.300;6.846;2022-09-09T11:51:00;3.85;;;1.75;;
35494;SDS011;21608;49.300;6.846;2022-09-09T11:57:36;2.30;;;1.40;;
35494;SDS011;21608;49.300;6.846;2022-09-09T12:00:44;3.80;;;1.30;;
35494;SDS011;21608;49.300;6.846;2022-09-09T12:03:48;4.78;;;1.42;;
35494;SDS011;21608;49.300;6.846;2022-09-09T12:10:22;1.33;;;1.10;;
35494;SDS011;21608;49.300;6.846;2022-09-09T12:13:33;3.28;;;1.30;;
35494;SDS011;21608;49.300;6.846;2022-09-09T12:16:36;2.35;;;1.10;;
35494;SDS011;21608;49.300;6.846;2022-09-09T12:19:39;2.88;;;1.23;;
35494;SDS011;21608;49.300;6.846;2022-09-09T12:22:57;3.83;;;1.23;;
35494;SDS011;21608;49.300;6.846;2022-09-09T12:32:25;2.83;;;0.80;;
35494;SDS011;21608;49.300;6.846;2022-09-09T12:35:27;2.92;;;1.45;;
35494;SDS011;21608;49.300;6.846;2022-09-09T12:38:34;3.38;;;1.15;;
35494;SDS011;21608;49.300;6.846;2022-09-09T12:41:40;6.55;;;1.67;;
35494;SDS011;21608;49.300;6.846;2022-09-09T12:44:50;2.20;;;1.10;;
35494;SDS011;21608;49.300;6.846;2022-09-09T12:50:58;2.83;;;1.55;;
35494;SDS011;21608;49.300;6.846;2022-09-09T12:54:01;3.22;;;1.52;;
35494;SDS011;21608;49.300;6.846;2022-09-09T12:57:04;3.53;;;1.10;;
35494;SDS011;21608;49.300;6.846;2022-09-09T13:00:08;3.78;;;1.45;;
35494;SDS011;21608;49.300;6.846;2022-09-09T13:03:18;3.28;;;1.45;;
35494;SDS011;21608;49.300;6.846;2022-09-09T13:06:25;2.22;;;1.13;;
35494;SDS011;21608;49.300;6.846;2022-09-09T13:09:29;2.10;;;1.13;;
35494;SDS011;21608;49.300;6.846;2022-09-09T13:12:31;2.88;;;1.25;;
35494;SDS011;21608;49.300;6.846;2022-09-09T13:15:33;2.10;;;0.90;;
35494;SDS011;21608;49.300;6.846;2022-09-09T13:18:35;6.43;;;1.13;;
35494;SDS011;21608;49.300;6.846;2022-09-09T13:21:41;1.52;;;1.23;;
35494;SDS011;21608;49.300;6.846;2022-09-09T13:24:43;1.40;;;1.00;;
35494;SDS011;21608;49.300;6.846;2022-09-09T13:28:04;2.47;;;1.13;;
35494;SDS011;21608;49.300;6.846;2022-09-09T13:31:23;1.20;;;1.00;;
35494;SDS011;21608;49.300;6.846;2022-09-09T13:34:30;3.75;;;1.05;;
35494;SDS011;21608;49.300;6.846;2022-09-09T13:37:34;2.78;;;1.20;;
35494;SDS011;21608;49.300;6.846;2022-09-09T13:44:23;2.50;;;1.27;;
35494;SDS011;21608;49.300;6.846;2022-09-09T13:47:34;2.88;;;1.45;;
35494;SDS011;21608;49.300;6.846;2022-09-09T13:50:37;1.80;;;0.90;;
35494;SDS011;21608;49.300;6.846;2022-09-09T13:53:39;1.75;;;0.93;;
35494;SDS011;21608;49.300;6.846;2022-09-09T13:56:42;2.55;;;1.00;;
35494;SDS011;21608;49.300;6.846;2022-09-09T13:59:45;2.75;;;1.20;;
35494;SDS011;21608;49.300;6.846;2022-09-09T14:03:05;1.77;;;1.17;;
35494;SDS011;21608;49.300;6.846;2022-09-09T14:06:09;2.17;;;0.95;;
35494;SDS011;21608;49.300;6.846;2022-09-09T14:09:12;3.75;;;0.98;;
35494;SDS011;21608;49.300;6.846;2022-09-09T14:12:17;2.17;;;1.10;;
35494;SDS011;21608;49.300;6.846;2022-09-09T14:15:19;2.22;;;1.10;;
35494;SDS011;21608;49.300;6.846;2022-09-09T14:18:21;7.18;;;1.10;;
35494;SDS011;21608;49.300;6.846;2022-09-09T14:21:24;3.50;;;0.93;;
35494;SDS011;21608;49.300;6.846;2022-09-09T14:24:27;1.30;;;0.88;;
35494;SDS011;21608;49.300;6.846;2022-09-09T14:27:32;1.17;;;0.88;;
35494;SDS011;21608;49.300;6.846;2022-09-09T14:30:33;2.95;;;1.10;;
35494;SDS011;21608;49.300;6.846;2022-09-09T14:33:35;1.30;;;0.80;;
35494;SDS011;21608;49.300;6.846;2022-09-09T14:36:37;2.15;;;1.10;;
35494;SDS011;21608;49.300;6.846;2022-09-09T14:39:39;3.42;;;1.10;;
35494;SDS011;21608;49.300;6.846;2022-09-09T14:42:41;1.60;;;0.90;;
35494;SDS011;21608;49.300;6.846;2022-09-09T14:45:42;1.52;;;1.00;;
35494;SDS011;21608;49.300;6.846;2022-09-09T14:48:45;1.40;;;1.08;;
35494;SDS011;21608;49.300;6.846;2022-09-09T14:51:49;0.88;;;0.65;;
35494;SDS011;21608;49.300;6.846;2022-09-09T14:54:51;2.15;;;1.00;;
35494;SDS011;21608;49.300;6.846;2022-09-09T14:57:53;1.17;;;0.90;;
35494;SDS011;21608;49.300;6.846;2022-09-09T15:00:54;1.17;;;1.08;;
35494;SDS011;21608;49.300;6.846;2022-09-09T15:03:57;2.15;;;0.98;;
35494;SDS011;21608;49.300;6.846;2022-09-09T15:07:01;1.77;;;1.10;;
35494;SDS011;21608;49.300;6.846;2022-09-09T15:10:03;1.40;;;1.13;;
35494;SDS011;21608;49.300;6.846;2022-09-09T15:13:06;1.48;;;1.13;;
35494;SDS011;21608;49.300;6.846;2022-09-09T15:16:27;2.10;;;1.00;;
35494;SDS011;21608;49.300;6.846;2022-09-09T15:19:29;5.07;;;0.80;;
35494;SDS011;21608;49.300;6.846;2022-09-09T15:22:31;2.13;;;0.73;;
35494;SDS011;21608;49.300;6.846;2022-09-09T15:25:33;1.75;;;1.10;;
35494;SDS011;21608;49.300;6.846;2022-09-09T15:28:36;2.25;;;1.20;;
35494;SDS011;21608;49.300;6.846;2022-09-09T15:31:39;1.58;;;0.80;;
35494;SDS011;21608;49.300;6.846;2022-09-09T15:34:40;1.40;;;0.88;;
35494;SDS011;21608;49.300;6.846;2022-09-09T15:37:43;3.05;;;0.95;;
35494;SDS011;21608;49.300;6.846;2022-09-09T15:40:44;2.03;;;1.05;;
35494;SDS011;21608;49.300;6.846;2022-09-09T15:43:56;1.48;;;1.10;;
35494;SDS011;21608;49.300;6.846;2022-09-09T15:46:58;2.67;;;1.13;;
35494;SDS011;21608;49.300;6.846;2022-09-09T15:50:00;2.65;;;1.10;;
35494;SDS011;21608;49.300;6.846;2022-09-09T15:53:02;3.88;;;1.40;;
35494;SDS011;21608;49.300;6.846;2022-09-09T15:56:04;0.70;;;0.70;;
35494;SDS011;21608;49.300;6.846;2022-09-09T15:59:07;2.20;;;1.00;;
35494;SDS011;21608;49.300;6.846;2022-09-09T16:02:09;4.68;;;1.00;;
35494;SDS011;21608;49.300;6.846;2022-09-09T16:05:11;1.55;;;0.98;;
35494;SDS011;21608;49.300;6.846;2022-09-09T16:08:13;1.90;;;1.00;;
35494;SDS011;21608;49.300;6.846;2022-09-09T16:11:16;0.57;;;0.52;;
35494;SDS011;21608;49.300;6.846;2022-09-09T16:14:23;2.72;;;0.75;;
35494;SDS011;21608;49.300;6.846;2022-09-09T16:17:26;1.02;;;0.80;;
35494;SDS011;21608;49.300;6.846;2022-09-09T16:20:28;1.85;;;0.98;;
35494;SDS011;21608;49.300;6.846;2022-09-09T16:23:31;1.67;;;0.80;;
35494;SDS011;21608;49.300;6.846;2022-09-09T16:26:34;1.83;;;1.30;;
35494;SDS011;21608;49.300;6.846;2022-09-09T16:29:37;0.98;;;0.80;;
35494;SDS011;21608;49.300;6.846;2022-09-09T16:32:39;2.40;;;0.60;;
35494;SDS011;21608;49.300;6.846;2022-09-09T16:35:41;1.95;;;0.82;;
35494;SDS011;21608;49.300;6.846;2022-09-09T16:38:43;1.38;;;0.90;;
35494;SDS011;21608;49.300;6.846;2022-09-09T16:41:46;2.50;;;0.77;;
35494;SDS011;21608;49.300;6.846;2022-09-09T16:44:48;2.17;;;1.00;;
35494;SDS011;21608;49.300;6.846;2022-09-09T16:47:51;3.80;;;1.10;;
35494;SDS011;21608;49.300;6.846;2022-09-09T16:50:52;0.73;;;0.70;;
35494;SDS011;21608;49.300;6.846;2022-09-09T16:54:02;1.38;;;0.70;;
35494;SDS011;21608;49.300;6.846;2022-09-09T16:57:07;2.00;;;1.00;;
35494;SDS011;21608;49.300;6.846;2022-09-09T17:00:09;3.53;;;0.98;;
35494;SDS011;21608;49.300;6.846;2022-09-09T17:03:14;1.73;;;0.90;;
35494;SDS011;21608;49.300;6.846;2022-09-09T17:06:17;2.13;;;0.75;;
35494;SDS011;21608;49.300;6.846;2022-09-09T17:09:19;1.00;;;0.70;;
35494;SDS011;21608;49.300;6.846;2022-09-09T17:12:22;3.13;;;0.93;;
35494;SDS011;21608;49.300;6.846;2022-09-09T17:15:23;1.20;;;0.80;;
35494;SDS011;21608;49.300;6.846;2022-09-09T17:18:26;3.47;;;0.80;;
35494;SDS011;21608;49.300;6.846;2022-09-09T17:21:29;1.27;;;0.90;;
35494;SDS011;21608;49.300;6.846;2022-09-09T17:24:32;1.58;;;0.90;;
35494;SDS011;21608;49.300;6.846;2022-09-09T17:27:35;1.67;;;0.90;;
35494;SDS011;21608;49.300;6.846;2022-09-09T17:30:37;3.08;;;0.95;;
35494;SDS011;21608;49.300;6.846;2022-09-09T17:33:40;3.03;;;1.23;;
35494;SDS011;21608;49.300;6.846;2022-09-09T17:36:43;2.45;;;0.90;;
35494;SDS011;21608;49.300;6.846;2022-09-09T17:39:45;1.55;;;0.70;;
35494;SDS011;21608;49.300;6.846;2022-09-09T17:42:47;1.45;;;0.90;;
35494;SDS011;21608;49.300;6.846;2022-09-09T17:45:49;3.35;;;0.80;;
35494;SDS011;21608;49.300;6.846;2022-09-09T17:48:52;1.30;;;1.05;;
35494;SDS011;21608;49.300;6.846;2022-09-09T17:51:57;1.95;;;0.82;;
35494;SDS011;21608;49.300;6.846;2022-09-09T17:54:58;1.13;;;0.90;;
35494;SDS011;21608;49.300;6.846;2022-09-09T17:58:01;0.93;;;0.80;;
35494;SDS011;21608;49.300;6.846;2022-09-09T18:01:03;1.73;;;0.93;;
35494;SDS011;21608;49.300;6.846;2022-09-09T18:04:25;1.83;;;1.10;;
35494;SDS011;21608;49.300;6.846;2022-09-09T18:07:26;3.17;;;0.90;;
35494;SDS011;21608;49.300;6.846;2022-09-09T18:10:28;3.10;;;0.90;;
35494;SDS011;21608;49.300;6.846;2022-09-09T18:13:30;2.00;;;1.08;;
35494;SDS011;21608;49.300;6.846;2022-09-09T18:16:32;2.45;;;1.00;;
35494;SDS011;21608;49.300;6.846;2022-09-09T18:19:36;1.80;;;0.70;;
35494;SDS011;21608;49.300;6.846;2022-09-09T18:22:38;3.15;;;0.90;;
35494;SDS011;21608;49.300;6.846;2022-09-09T18:25:40;1.17;;;1.00;;
35494;SDS011;21608;49.300;6.846;2022-09-09T18:28:43;2.30;;;1.20;;
35494;SDS011;21608;49.300;6.846;2022-09-09T18:31:49;1.80;;;0.90;;
35494;SDS011;21608;49.300;6.846;2022-09-09T18:34:51;1.88;;;1.15;;
35494;SDS011;21608;49.300;6.846;2022-09-09T18:37:55;3.42;;;1.00;;
35494;SDS011;21608;49.300;6.846;2022-09-09T18:40:58;2.72;;;0.77;;
35494;SDS011;21608;49.300;6.846;2022-09-09T18:44:00;4.20;;;0.88;;
35494;SDS011;21608;49.300;6.846;2022-09-09T18:47:05;4.88;;;1.13;;
35494;SDS011;21608;49.300;6.846;2022-09-09T18:50:08;5.78;;;0.90;;
35494;SDS011;21608;49.300;6.846;2022-09-09T18:53:09;1.40;;;0.80;;
35494;SDS011;21608;49.300;6.846;2022-09-09T18:56:11;10.77;;;1.23;;
35494;SDS011;21608;49.300;6.846;2022-09-09T18:59:15;1.33;;;0.80;;
35494;SDS011;21608;49.300;6.846;2022-09-09T19:02:20;3.90;;;1.00;;
35494;SDS011;21608;49.300;6.846;2022-09-09T19:05:22;1.40;;;0.65;;
35494;SDS011;21608;49.300;6.846;2022-09-09T19:08:23;1.75;;;0.70;;
35494;SDS011;21608;49.300;6.846;2022-09-09T19:11:26;1.50;;;0.80;;
35494;SDS011;21608;49.300;6.846;2022-09-09T19:14:28;2.45;;;0.70;;
35494;SDS011;21608;49.300;6.846;2022-09-09T19:17:30;1.13;;;0.80;;
35494;SDS011;21608;49.300;6.846;2022-09-09T19:20:33;2.17;;;1.10;;
35494;SDS011;21608;49.300;6.846;2022-09-09T19:23:35;0.77;;;0.70;;
35494;SDS011;21608;49.300;6.846;2022-09-09T19:26:38;0.98;;;0.80;;
35494;SDS011;21608;49.300;6.846;2022-09-09T19:29:41;2.90;;;1.27;;
35494;SDS011;21608;49.300;6.846;2022-09-09T19:32:44;1.52;;;0.63;;
35494;SDS011;21608;49.300;6.846;2022-09-09T19:35:58;1.42;;;0.77;;
35494;SDS011;21608;49.300;6.846;2022-09-09T19:39:07;1.08;;;0.80;;
35494;SDS011;21608;49.300;6.846;2022-09-09T19:42:10;0.80;;;0.80;;
35494;SDS011;21608;49.300;6.846;2022-09-09T19:45:12;1.00;;;0.80;;
35494;SDS011;21608;49.300;6.846;2022-09-09T19:48:16;0.80;;;0.60;;
35494;SDS011;21608;49.300;6.846;2022-09-09T19:51:19;1.38;;;0.60;;
35494;SDS011;21608;49.300;6.846;2022-09-09T19:54:23;2.67;;;0.80;;
35494;SDS011;21608;49.300;6.846;2022-09-09T19:57:24;0.70;;;0.60;;
35494;SDS011;21608;49.300;6.846;2022-09-09T20:00:30;1.13;;;0.70;;
35494;SDS011;21608;49.300;6.846;2022-09-09T20:03:34;0.82;;;0.60;;
35494;SDS011;21608;49.300;6.846;2022-09-09T20:06:38;3.28;;;0.90;;
35494;SDS011;21608;49.300;6.846;2022-09-09T20:09:40;2.05;;;0.70;;
35494;SDS011;21608;49.300;6.846;2022-09-09T20:12:42;0.40;;;0.40;;
35494;SDS011;21608;49.300;6.846;2022-09-09T20:15:44;1.20;;;0.80;;
35494;SDS011;21608;49.300;6.846;2022-09-09T20:18:47;1.27;;;1.13;;
35494;SDS011;21608;49.300;6.846;2022-09-09T20:21:53;2.28;;;0.90;;
35494;SDS011;21608;49.300;6.846;2022-09-09T20:24:55;3.25;;;1.00;;
35494;SDS011;21608;49.300;6.846;2022-09-09T20:27:57;1.63;;;0.68;;
35494;SDS011;21608;49.300;6.846;2022-09-09T20:31:03;1.02;;;0.85;;
35494;SDS011;21608;49.300;6.846;2022-09-09T20:34:11;1.75;;;0.73;;
35494;SDS011;21608;49.300;6.846;2022-09-09T20:37:14;1.13;;;0.63;;
35494;SDS011;21608;49.300;6.846;2022-09-09T20:40:17;2.33;;;1.08;;